sensor_id;sensor_type;location;lat;lon;timestamp;temperature;humidity
2495;DHT22;1258;48.336;14.322;2024-01-11T00:00:10;-8.80;99.90
2495;DHT22;1258;48.336;14.322;2024-01-11T00:02:37;-8.70;99.90
2495;DHT22;1258;48.336;14.322;2024-01-11T00:05:06;-8.70;99.90
2495;DHT22;1258;48.336;14.322;2024-01-11T00:07:33;-8.70;99.90
2495;DHT22;1258;48.336;14.322;2024-01-11T00:10:01;-8.70;99.90
2495;DHT22;1258;48.336;14.322;2024-01-11T00:12:29;-8.70;99.90
2495;DHT22;1258;48.336;14.322;2024-01-11T00:14:57;-8.60;99.90
2495;DHT22;1258;48.336;14.322;2024-01-11T00:17:25;-8.60;99.90
2495;DHT22;1258;48.336;14.322;2024-01-11T00:19:52;-8.50;99.90
2495;DHT22;1258;48.336;14.322;2024-01-11T00:22:20;-8.40;99.90
2495;DHT22;1258;48.336;14.322;2024-01-11T00:24:47;-8.40;99.90
2495;DHT22;1258;48.336;14.322;2024-01-11T00:27:14;-8.30;99.90
2495;DHT22;1258;48.336;14.322;2024-01-11T00:29:41;-8.30;99.90
2495;DHT22;1258;48.336;14.322;2024-01-11T00:32:07;-8.30;99.90
2495;DHT22;1258;48.336;14.322;2024-01-11T00:34:34;-8.20;99.90
2495;DHT22;1258;48.336;14.322;2024-01-11T00:37:02;-8.20;99.90
2495;DHT22;1258;48.336;14.322;2024-01-11T00:39:30;-8.10;99.90
2495;DHT22;1258;48.336;14.322;2024-01-11T00:41:57;-8.10;99.90
2495;DHT22;1258;48.336;14.322;2024-01-11T00:44:24;-8.10;99.90
2495;DHT22;1258;48.336;14.322;2024-01-11T00:46:51;-8.10;99.90
2495;DHT22;1258;48.336;14.322;2024-01-11T00:49:18;-8.10;99.90
2495;DHT22;1258;48.336;14.322;2024-01-11T00:51:44;-8.10;99.90
2495;DHT22;1258;48.336;14.322;2024-01-11T00:54:11;-8.10;99.90
2495;DHT22;1258;48.336;14.322;2024-01-11T00:56:40;-8.10;99.90
2495;DHT22;1258;48.336;14.322;2024-01-11T00:59:06;-8.20;99.90
2495;DHT22;1258;48.336;14.322;2024-01-11T01:01:33;-8.20;99.90
2495;DHT22;1258;48.336;14.322;2024-01-11T01:04:00;-8.10;99.90
2495;DHT22;1258;48.336;14.322;2024-01-11T01:06:27;-8.40;99.90
2495;DHT22;1258;48.336;14.322;2024-01-11T01:08:55;-8.40;99.90
2495;DHT22;1258;48.336;14.322;2024-01-11T01:11:22;-8.30;99.90
2495;DHT22;1258;48.336;14.322;2024-01-11T01:13:50;-8.40;99.90
2495;DHT22;1258;48.336;14.322;2024-01-11T01:16:17;-8.60;99.90
2495;DHT22;1258;48.336;14.322;2024-01-11T01:18:44;-9.00;99.90
2495;DHT22;1258;48.336;14.322;2024-01-11T01:21:11;-9.20;99.90
2495;DHT22;1258;48.336;14.322;2024-01-11T01:23:38;-9.30;99.90
2495;DHT22;1258;48.336;14.322;2024-01-11T01:26:06;-9.30;99.90
2495;DHT22;1258;48.336;14.322;2024-01-11T01:28:33;-9.40;99.90
2495;DHT22;1258;48.336;14.322;2024-01-11T01:31:01;-9.40;99.90
2495;DHT22;1258;48.336;14.322;2024-01-11T01:33:28;-9.30;99.90
2495;DHT22;1258;48.336;14.322;2024-01-11T01:35:55;-9.20;99.90
2495;DHT22;1258;48.336;14.322;2024-01-11T01:38:21;-9.30;99.90
2495;DHT22;1258;48.336;14.322;2024-01-11T01:40:48;-9.20;99.90
2495;DHT22;1258;48.336;14.322;2024-01-11T01:43:15;-9.50;99.90
2495;DHT22;1258;48.336;14.322;2024-01-11T01:45:42;-9.70;99.90
2495;DHT22;1258;48.336;14.322;2024-01-11T01:48:11;-9.70;99.90
2495;DHT22;1258;48.336;14.322;2024-01-11T01:50:38;-9.70;99.90
2495;DHT22;1258;48.336;14.322;2024-01-11T01:53:05;-9.50;99.90
2495;DHT22;1258;48.336;14.322;2024-01-11T01:55:33;-9.50;99.90
2495;DHT22;1258;48.336;14.322;2024-01-11T01:58:00;-9.40;99.90
2495;DHT22;1258;48.336;14.322;2024-01-11T02:00:29;-9.40;99.90
2495;DHT22;1258;48.336;14.322;2024-01-11T02:02:56;-9.60;99.90
2495;DHT22;1258;48.336;14.322;2024-01-11T02:05:26;-9.80;99.90
2495;DHT22;1258;48.336;14.322;2024-01-11T02:07:53;-9.80;99.90
2495;DHT22;1258;48.336;14.322;2024-01-11T02:10:20;-9.80;99.90
2495;DHT22;1258;48.336;14.322;2024-01-11T02:12:47;-10.00;99.90
2495;DHT22;1258;48.336;14.322;2024-01-11T02:15:14;-10.10;99.90
2495;DHT22;1258;48.336;14.322;2024-01-11T02:17:41;-10.20;99.90
2495;DHT22;1258;48.336;14.322;2024-01-11T02:20:09;-10.30;99.90
2495;DHT22;1258;48.336;14.322;2024-01-11T02:22:39;-10.50;99.90
2495;DHT22;1258;48.336;14.322;2024-01-11T02:25:08;-10.50;99.90
2495;DHT22;1258;48.336;14.322;2024-01-11T02:27:45;-10.50;99.90
2495;DHT22;1258;48.336;14.322;2024-01-11T02:30:13;-10.50;99.90
2495;DHT22;1258;48.336;14.322;2024-01-11T02:32:40;-10.50;99.90
2495;DHT22;1258;48.336;14.322;2024-01-11T02:35:07;-10.20;99.90
2495;DHT22;1258;48.336;14.322;2024-01-11T02:37:36;-10.10;99.90
2495;DHT22;1258;48.336;14.322;2024-01-11T02:40:05;-9.90;99.90
2495;DHT22;1258;48.336;14.322;2024-01-11T02:42:34;-10.10;99.90
2495;DHT22;1258;48.336;14.322;2024-01-11T02:45:01;-10.00;99.90
2495;DHT22;1258;48.336;14.322;2024-01-11T02:47:29;-10.00;99.90
2495;DHT22;1258;48.336;14.322;2024-01-11T02:49:56;-10.00;99.90
2495;DHT22;1258;48.336;14.322;2024-01-11T02:52:23;-10.00;99.90
2495;DHT22;1258;48.336;14.322;2024-01-11T02:54:50;-10.10;99.90
2495;DHT22;1258;48.336;14.322;2024-01-11T02:57:17;-10.20;99.90
2495;DHT22;1258;48.336;14.322;2024-01-11T02:59:45;-10.20;99.90
2495;DHT22;1258;48.336;14.322;2024-01-11T03:02:12;-10.20;99.90
2495;DHT22;1258;48.336;14.322;2024-01-11T03:04:39;-10.20;99.90
2495;DHT22;1258;48.336;14.322;2024-01-11T03:07:06;-10.10;99.90
2495;DHT22;1258;48.336;14.322;2024-01-11T03:09:33;-10.10;99.90
2495;DHT22;1258;48.336;14.322;2024-01-11T03:12:00;-10.00;99.90
2495;DHT22;1258;48.336;14.322;2024-01-11T03:14:27;-10.00;99.90
2495;DHT22;1258;48.336;14.322;2024-01-11T03:16:55;-10.20;99.90
2495;DHT22;1258;48.336;14.322;2024-01-11T03:19:22;-10.20;99.90
2495;DHT22;1258;48.336;14.322;2024-01-11T03:21:49;-10.10;99.90
2495;DHT22;1258;48.336;14.322;2024-01-11T03:24:15;-10.10;99.90
2495;DHT22;1258;48.336;14.322;2024-01-11T03:26:42;-10.10;99.90
2495;DHT22;1258;48.336;14.322;2024-01-11T03:29:09;-10.10;99.90
2495;DHT22;1258;48.336;14.322;2024-01-11T03:31:36;-10.10;99.90
2495;DHT22;1258;48.336;14.322;2024-01-11T03:34:08;-10.00;99.90
2495;DHT22;1258;48.336;14.322;2024-01-11T03:36:35;-10.00;99.90
2495;DHT22;1258;48.336;14.322;2024-01-11T03:39:02;-10.00;99.90
2495;DHT22;1258;48.336;14.322;2024-01-11T03:41:29;-10.00;99.90
2495;DHT22;1258;48.336;14.322;2024-01-11T03:43:56;-10.00;99.90
2495;DHT22;1258;48.336;14.322;2024-01-11T03:46:23;-10.00;99.90
2495;DHT22;1258;48.336;14.322;2024-01-11T03:48:49;-10.40;99.90
2495;DHT22;1258;48.336;14.322;2024-01-11T03:51:18;-10.50;99.90
2495;DHT22;1258;48.336;14.322;2024-01-11T03:53:45;-10.40;99.90
2495;DHT22;1258;48.336;14.322;2024-01-11T03:56:11;-10.30;99.90
2495;DHT22;1258;48.336;14.322;2024-01-11T03:58:38;-10.30;99.90
2495;DHT22;1258;48.336;14.322;2024-01-11T04:01:07;-10.30;99.90
2495;DHT22;1258;48.336;14.322;2024-01-11T04:03:35;-10.20;99.90
2495;DHT22;1258;48.336;14.322;2024-01-11T04:06:03;-10.30;99.90
2495;DHT22;1258;48.336;14.322;2024-01-11T04:08:31;-10.40;99.90
2495;DHT22;1258;48.336;14.322;2024-01-11T04:10:58;-10.30;99.90
2495;DHT22;1258;48.336;14.322;2024-01-11T04:13:28;-10.40;99.90
2495;DHT22;1258;48.336;14.322;2024-01-11T04:15:54;-10.40;99.90
2495;DHT22;1258;48.336;14.322;2024-01-11T04:18:21;-10.40;99.90
2495;DHT22;1258;48.336;14.322;2024-01-11T04:20:48;-10.30;99.90
2495;DHT22;1258;48.336;14.322;2024-01-11T04:23:15;-10.30;99.90
2495;DHT22;1258;48.336;14.322;2024-01-11T04:25:43;-10.30;99.90
2495;DHT22;1258;48.336;14.322;2024-01-11T04:28:10;-10.30;99.90
2495;DHT22;1258;48.336;14.322;2024-01-11T04:30:37;-10.40;99.90
2495;DHT22;1258;48.336;14.322;2024-01-11T04:33:04;-10.30;99.90
2495;DHT22;1258;48.336;14.322;2024-01-11T04:35:31;-10.30;99.90
2495;DHT22;1258;48.336;14.322;2024-01-11T04:37:58;-10.20;99.90
2495;DHT22;1258;48.336;14.322;2024-01-11T04:40:25;-10.20;99.90
2495;DHT22;1258;48.336;14.322;2024-01-11T04:42:53;-10.10;99.90
2495;DHT22;1258;48.336;14.322;2024-01-11T04:45:20;-10.10;99.90
2495;DHT22;1258;48.336;14.322;2024-01-11T04:47:48;-10.10;99.90
2495;DHT22;1258;48.336;14.322;2024-01-11T04:50:16;-10.10;99.90
2495;DHT22;1258;48.336;14.322;2024-01-11T04:52:43;-10.00;99.90
2495;DHT22;1258;48.336;14.322;2024-01-11T04:55:10;-10.00;99.90
2495;DHT22;1258;48.336;14.322;2024-01-11T04:57:37;-10.10;99.90
2495;DHT22;1258;48.336;14.322;2024-01-11T05:00:06;-10.10;99.90
2495;DHT22;1258;48.336;14.322;2024-01-11T05:02:34;-10.10;99.90
2495;DHT22;1258;48.336;14.322;2024-01-11T05:05:01;-10.10;99.90
2495;DHT22;1258;48.336;14.322;2024-01-11T05:07:28;-10.20;99.90
2495;DHT22;1258;48.336;14.322;2024-01-11T05:09:54;-10.30;99.90
2495;DHT22;1258;48.336;14.322;2024-01-11T05:12:21;-10.40;99.90
2495;DHT22;1258;48.336;14.322;2024-01-11T05:14:48;-10.30;99.90
2495;DHT22;1258;48.336;14.322;2024-01-11T05:17:16;-10.40;99.90
2495;DHT22;1258;48.336;14.322;2024-01-11T05:19:43;-10.30;99.90
2495;DHT22;1258;48.336;14.322;2024-01-11T05:22:10;-10.20;99.90
2495;DHT22;1258;48.336;14.322;2024-01-11T05:24:37;-10.20;99.90
2495;DHT22;1258;48.336;14.322;2024-01-11T05:27:04;-10.10;99.90
2495;DHT22;1258;48.336;14.322;2024-01-11T05:29:31;-10.00;99.90
2495;DHT22;1258;48.336;14.322;2024-01-11T05:31:58;-9.90;99.90
2495;DHT22;1258;48.336;14.322;2024-01-11T05:34:26;-9.90;99.90
2495;DHT22;1258;48.336;14.322;2024-01-11T05:36:53;-9.90;99.90
2495;DHT22;1258;48.336;14.322;2024-01-11T05:39:20;-9.90;99.90
2495;DHT22;1258;48.336;14.322;2024-01-11T05:41:47;-9.90;99.90
2495;DHT22;1258;48.336;14.322;2024-01-11T05:44:14;-9.90;99.90
2495;DHT22;1258;48.336;14.322;2024-01-11T05:46:41;-9.90;99.90
2495;DHT22;1258;48.336;14.322;2024-01-11T05:49:07;-9.90;99.90
2495;DHT22;1258;48.336;14.322;2024-01-11T05:51:36;-10.00;99.90
2495;DHT22;1258;48.336;14.322;2024-01-11T05:54:03;-9.90;99.90
2495;DHT22;1258;48.336;14.322;2024-01-11T05:56:30;-9.80;99.90
2495;DHT22;1258;48.336;14.322;2024-01-11T05:58:57;-9.80;99.90
2495;DHT22;1258;48.336;14.322;2024-01-11T06:01:24;-9.70;99.90
2495;DHT22;1258;48.336;14.322;2024-01-11T06:03:51;-9.80;99.90
2495;DHT22;1258;48.336;14.322;2024-01-11T06:06:18;-9.70;99.90
2495;DHT22;1258;48.336;14.322;2024-01-11T06:08:47;-9.70;99.90
2495;DHT22;1258;48.336;14.322;2024-01-11T06:11:14;-9.70;99.90
2495;DHT22;1258;48.336;14.322;2024-01-11T06:13:41;-9.60;99.90
2495;DHT22;1258;48.336;14.322;2024-01-11T06:16:08;-9.60;99.90
2495;DHT22;1258;48.336;14.322;2024-01-11T06:18:35;-9.60;99.90
2495;DHT22;1258;48.336;14.322;2024-01-11T06:21:02;-9.60;99.90
2495;DHT22;1258;48.336;14.322;2024-01-11T06:23:29;-9.60;99.90
2495;DHT22;1258;48.336;14.322;2024-01-11T06:25:57;-9.50;99.90
2495;DHT22;1258;48.336;14.322;2024-01-11T06:28:24;-9.50;99.90
2495;DHT22;1258;48.336;14.322;2024-01-11T06:30:51;-9.50;99.90
2495;DHT22;1258;48.336;14.322;2024-01-11T06:33:19;-9.50;99.90
2495;DHT22;1258;48.336;14.322;2024-01-11T06:35:46;-9.50;99.90
2495;DHT22;1258;48.336;14.322;2024-01-11T06:38:13;-9.60;99.90
2495;DHT22;1258;48.336;14.322;2024-01-11T06:40:40;-9.60;99.90
2495;DHT22;1258;48.336;14.322;2024-01-11T06:43:09;-9.70;99.90
2495;DHT22;1258;48.336;14.322;2024-01-11T06:45:37;-9.70;99.90
2495;DHT22;1258;48.336;14.322;2024-01-11T06:48:05;-9.70;99.90
2495;DHT22;1258;48.336;14.322;2024-01-11T06:50:32;-9.70;99.90
2495;DHT22;1258;48.336;14.322;2024-01-11T06:52:59;-9.60;99.90
2495;DHT22;1258;48.336;14.322;2024-01-11T06:55:26;-9.70;99.90
2495;DHT22;1258;48.336;14.322;2024-01-11T06:57:53;-9.60;99.90
2495;DHT22;1258;48.336;14.322;2024-01-11T07:00:21;-9.70;99.90
2495;DHT22;1258;48.336;14.322;2024-01-11T07:02:48;-9.60;99.90
2495;DHT22;1258;48.336;14.322;2024-01-11T07:05:15;-9.60;99.90
2495;DHT22;1258;48.336;14.322;2024-01-11T07:07:42;-9.60;99.90
2495;DHT22;1258;48.336;14.322;2024-01-11T07:10:09;-9.60;99.90
2495;DHT22;1258;48.336;14.322;2024-01-11T07:12:38;-9.50;99.90
2495;DHT22;1258;48.336;14.322;2024-01-11T07:15:08;-9.50;99.90
2495;DHT22;1258;48.336;14.322;2024-01-11T07:17:36;-9.40;99.90
2495;DHT22;1258;48.336;14.322;2024-01-11T07:20:04;-9.40;99.90
2495;DHT22;1258;48.336;14.322;2024-01-11T07:22:31;-9.40;99.90
2495;DHT22;1258;48.336;14.322;2024-01-11T07:24:58;-9.70;99.90
2495;DHT22;1258;48.336;14.322;2024-01-11T07:27:25;-10.00;99.90
2495;DHT22;1258;48.336;14.322;2024-01-11T07:29:52;-9.70;99.90
2495;DHT22;1258;48.336;14.322;2024-01-11T07:32:19;-9.60;99.90
2495;DHT22;1258;48.336;14.322;2024-01-11T07:34:47;-9.40;99.90
2495;DHT22;1258;48.336;14.322;2024-01-11T07:37:14;-9.30;99.90
2495;DHT22;1258;48.336;14.322;2024-01-11T07:39:41;-9.20;99.90
2495;DHT22;1258;48.336;14.322;2024-01-11T07:42:08;-9.10;99.90
2495;DHT22;1258;48.336;14.322;2024-01-11T07:44:35;-9.10;99.90
2495;DHT22;1258;48.336;14.322;2024-01-11T07:47:02;-9.10;99.90
2495;DHT22;1258;48.336;14.322;2024-01-11T07:49:28;-9.00;99.90
2495;DHT22;1258;48.336;14.322;2024-01-11T07:51:57;-8.90;99.90
2495;DHT22;1258;48.336;14.322;2024-01-11T07:54:25;-8.90;99.90
2495;DHT22;1258;48.336;14.322;2024-01-11T07:56:52;-8.90;99.90
2495;DHT22;1258;48.336;14.322;2024-01-11T07:59:18;-8.90;99.90
2495;DHT22;1258;48.336;14.322;2024-01-11T08:01:45;-8.70;99.90
2495;DHT22;1258;48.336;14.322;2024-01-11T08:04:14;-8.80;99.90
2495;DHT22;1258;48.336;14.322;2024-01-11T08:06:41;-8.80;99.90
2495;DHT22;1258;48.336;14.322;2024-01-11T08:09:09;-8.70;99.90
2495;DHT22;1258;48.336;14.322;2024-01-11T08:11:36;-8.70;99.90
2495;DHT22;1258;48.336;14.322;2024-01-11T08:14:03;-8.60;99.90
2495;DHT22;1258;48.336;14.322;2024-01-11T08:16:31;-8.50;99.90
2495;DHT22;1258;48.336;14.322;2024-01-11T08:18:57;-8.60;99.90
2495;DHT22;1258;48.336;14.322;2024-01-11T08:21:26;-8.80;99.90
2495;DHT22;1258;48.336;14.322;2024-01-11T08:23:53;-8.80;99.90
2495;DHT22;1258;48.336;14.322;2024-01-11T08:26:22;-8.80;99.90
2495;DHT22;1258;48.336;14.322;2024-01-11T08:28:49;-8.50;99.90
2495;DHT22;1258;48.336;14.322;2024-01-11T08:31:16;-8.40;99.90
2495;DHT22;1258;48.336;14.322;2024-01-11T08:33:42;-8.20;99.90
2495;DHT22;1258;48.336;14.322;2024-01-11T08:36:09;-8.10;99.90
2495;DHT22;1258;48.336;14.322;2024-01-11T08:38:37;-7.80;99.90
2495;DHT22;1258;48.336;14.322;2024-01-11T08:41:04;-7.70;99.90
2495;DHT22;1258;48.336;14.322;2024-01-11T08:43:33;-7.80;99.90
2495;DHT22;1258;48.336;14.322;2024-01-11T08:46:00;-7.70;99.90
2495;DHT22;1258;48.336;14.322;2024-01-11T08:48:27;-7.70;99.90
2495;DHT22;1258;48.336;14.322;2024-01-11T08:50:54;-7.50;99.90
2495;DHT22;1258;48.336;14.322;2024-01-11T08:53:21;-7.40;99.90
2495;DHT22;1258;48.336;14.322;2024-01-11T08:55:48;-7.30;99.90
2495;DHT22;1258;48.336;14.322;2024-01-11T08:58:15;-7.20;99.90
2495;DHT22;1258;48.336;14.322;2024-01-11T09:00:43;-7.10;99.90
2495;DHT22;1258;48.336;14.322;2024-01-11T09:03:10;-7.20;99.90
2495;DHT22;1258;48.336;14.322;2024-01-11T09:05:39;-7.40;99.90
2495;DHT22;1258;48.336;14.322;2024-01-11T09:08:06;-7.60;99.90
2495;DHT22;1258;48.336;14.322;2024-01-11T09:10:33;-7.60;99.90
2495;DHT22;1258;48.336;14.322;2024-01-11T09:13:00;-7.60;99.90
2495;DHT22;1258;48.336;14.322;2024-01-11T09:15:27;-7.70;99.90
2495;DHT22;1258;48.336;14.322;2024-01-11T09:17:55;-7.70;99.90
2495;DHT22;1258;48.336;14.322;2024-01-11T09:20:22;-7.60;99.90
2495;DHT22;1258;48.336;14.322;2024-01-11T09:22:49;-7.50;99.90
2495;DHT22;1258;48.336;14.322;2024-01-11T09:25:16;-7.40;99.90
2495;DHT22;1258;48.336;14.322;2024-01-11T09:27:43;-7.30;99.90
2495;DHT22;1258;48.336;14.322;2024-01-11T09:30:11;-7.00;99.90
2495;DHT22;1258;48.336;14.322;2024-01-11T09:32:38;-7.10;99.90
2495;DHT22;1258;48.336;14.322;2024-01-11T09:35:06;-7.20;99.90
2495;DHT22;1258;48.336;14.322;2024-01-11T09:37:34;-7.10;99.90
2495;DHT22;1258;48.336;14.322;2024-01-11T09:40:01;-6.80;99.90
2495;DHT22;1258;48.336;14.322;2024-01-11T09:42:29;-6.90;99.90
2495;DHT22;1258;48.336;14.322;2024-01-11T09:44:56;-6.70;99.90
2495;DHT22;1258;48.336;14.322;2024-01-11T09:47:24;-6.60;99.90
2495;DHT22;1258;48.336;14.322;2024-01-11T09:49:53;-6.60;99.90
2495;DHT22;1258;48.336;14.322;2024-01-11T09:52:22;-6.40;99.90
2495;DHT22;1258;48.336;14.322;2024-01-11T09:54:51;-6.40;99.90
2495;DHT22;1258;48.336;14.322;2024-01-11T09:57:24;-6.30;99.90
2495;DHT22;1258;48.336;14.322;2024-01-11T09:59:54;-6.20;99.90
2495;DHT22;1258;48.336;14.322;2024-01-11T10:02:23;-6.20;99.90
2495;DHT22;1258;48.336;14.322;2024-01-11T10:04:50;-6.40;99.90
2495;DHT22;1258;48.336;14.322;2024-01-11T10:07:18;-6.30;99.90
2495;DHT22;1258;48.336;14.322;2024-01-11T10:09:48;-6.20;99.90
2495;DHT22;1258;48.336;14.322;2024-01-11T10:12:15;-6.10;99.90
2495;DHT22;1258;48.336;14.322;2024-01-11T10:14:42;-6.00;99.90
2495;DHT22;1258;48.336;14.322;2024-01-11T10:17:08;-5.90;99.90
2495;DHT22;1258;48.336;14.322;2024-01-11T10:19:36;-5.90;99.90
2495;DHT22;1258;48.336;14.322;2024-01-11T10:22:03;-5.90;99.90
2495;DHT22;1258;48.336;14.322;2024-01-11T10:24:32;-5.80;99.90
2495;DHT22;1258;48.336;14.322;2024-01-11T10:27:02;-5.90;99.90
2495;DHT22;1258;48.336;14.322;2024-01-11T10:29:31;-5.80;99.90
2495;DHT22;1258;48.336;14.322;2024-01-11T10:31:58;-5.70;99.90
2495;DHT22;1258;48.336;14.322;2024-01-11T10:34:25;-5.70;99.90
2495;DHT22;1258;48.336;14.322;2024-01-11T10:36:52;-5.70;99.90
2495;DHT22;1258;48.336;14.322;2024-01-11T10:39:23;-5.60;99.90
2495;DHT22;1258;48.336;14.322;2024-01-11T10:41:56;-5.60;99.90
2495;DHT22;1258;48.336;14.322;2024-01-11T10:44:29;-5.70;99.90
2495;DHT22;1258;48.336;14.322;2024-01-11T10:46:59;-6.60;99.90
2495;DHT22;1258;48.336;14.322;2024-01-11T10:49:30;-6.80;99.90
2495;DHT22;1258;48.336;14.322;2024-01-11T10:52:01;-6.80;99.90
2495;DHT22;1258;48.336;14.322;2024-01-11T10:54:28;-6.70;99.90
2495;DHT22;1258;48.336;14.322;2024-01-11T10:56:58;-6.50;99.90
2495;DHT22;1258;48.336;14.322;2024-01-11T10:59:27;-6.20;99.90
2495;DHT22;1258;48.336;14.322;2024-01-11T11:01:57;-6.30;99.90
2495;DHT22;1258;48.336;14.322;2024-01-11T11:04:25;-6.00;99.90
2495;DHT22;1258;48.336;14.322;2024-01-11T11:06:54;-6.10;99.90
2495;DHT22;1258;48.336;14.322;2024-01-11T11:09:23;-6.20;99.90
2495;DHT22;1258;48.336;14.322;2024-01-11T11:11:49;-6.50;99.90
2495;DHT22;1258;48.336;14.322;2024-01-11T11:14:17;-6.60;99.90
2495;DHT22;1258;48.336;14.322;2024-01-11T11:16:46;-6.20;99.90
2495;DHT22;1258;48.336;14.322;2024-01-11T11:19:14;-6.10;99.90
2495;DHT22;1258;48.336;14.322;2024-01-11T11:21:44;-5.80;99.90
2495;DHT22;1258;48.336;14.322;2024-01-11T11:24:12;-5.70;99.90
2495;DHT22;1258;48.336;14.322;2024-01-11T11:26:39;-5.60;99.90
2495;DHT22;1258;48.336;14.322;2024-01-11T11:29:06;-5.60;99.90
2495;DHT22;1258;48.336;14.322;2024-01-11T11:31:36;-5.50;99.90
2495;DHT22;1258;48.336;14.322;2024-01-11T11:34:05;-5.40;99.90
2495;DHT22;1258;48.336;14.322;2024-01-11T11:36:33;-5.50;99.90
2495;DHT22;1258;48.336;14.322;2024-01-11T11:39:02;-5.60;99.90
2495;DHT22;1258;48.336;14.322;2024-01-11T11:41:30;-5.60;99.90
2495;DHT22;1258;48.336;14.322;2024-01-11T11:44:01;-5.60;99.90
2495;DHT22;1258;48.336;14.322;2024-01-11T11:46:28;-5.60;99.90
2495;DHT22;1258;48.336;14.322;2024-01-11T11:48:57;-5.50;99.90
2495;DHT22;1258;48.336;14.322;2024-01-11T11:51:25;-5.50;99.90
2495;DHT22;1258;48.336;14.322;2024-01-11T11:53:53;-5.40;99.90
2495;DHT22;1258;48.336;14.322;2024-01-11T11:56:21;-5.30;99.90
2495;DHT22;1258;48.336;14.322;2024-01-11T11:58:49;-5.30;99.90
2495;DHT22;1258;48.336;14.322;2024-01-11T12:01:18;-5.40;99.90
2495;DHT22;1258;48.336;14.322;2024-01-11T12:03:45;-5.50;99.90
2495;DHT22;1258;48.336;14.322;2024-01-11T12:06:15;-5.60;99.90
2495;DHT22;1258;48.336;14.322;2024-01-11T12:08:45;-5.50;99.90
2495;DHT22;1258;48.336;14.322;2024-01-11T12:11:17;-5.30;99.90
2495;DHT22;1258;48.336;14.322;2024-01-11T12:13:44;-5.10;99.90
2495;DHT22;1258;48.336;14.322;2024-01-11T12:16:11;-5.10;99.90
2495;DHT22;1258;48.336;14.322;2024-01-11T12:18:39;-5.10;99.90
2495;DHT22;1258;48.336;14.322;2024-01-11T12:21:06;-5.20;99.90
2495;DHT22;1258;48.336;14.322;2024-01-11T12:23:34;-5.30;99.90
2495;DHT22;1258;48.336;14.322;2024-01-11T12:26:06;-5.30;99.90
2495;DHT22;1258;48.336;14.322;2024-01-11T12:28:38;-5.20;99.90
2495;DHT22;1258;48.336;14.322;2024-01-11T12:31:05;-5.30;99.90
2495;DHT22;1258;48.336;14.322;2024-01-11T12:33:32;-5.20;99.90
2495;DHT22;1258;48.336;14.322;2024-01-11T12:36:00;-5.40;99.90
2495;DHT22;1258;48.336;14.322;2024-01-11T12:38:28;-5.40;99.90
2495;DHT22;1258;48.336;14.322;2024-01-11T12:40:55;-5.40;99.90
2495;DHT22;1258;48.336;14.322;2024-01-11T12:43:23;-5.60;99.90
2495;DHT22;1258;48.336;14.322;2024-01-11T12:45:50;-5.60;99.90
2495;DHT22;1258;48.336;14.322;2024-01-11T12:48:17;-5.50;99.90
2495;DHT22;1258;48.336;14.322;2024-01-11T12:50:45;-5.60;99.90
2495;DHT22;1258;48.336;14.322;2024-01-11T12:53:13;-5.70;99.90
2495;DHT22;1258;48.336;14.322;2024-01-11T12:55:43;-5.70;99.90
2495;DHT22;1258;48.336;14.322;2024-01-11T12:58:10;-5.80;99.90
2495;DHT22;1258;48.336;14.322;2024-01-11T13:00:39;-5.90;99.90
2495;DHT22;1258;48.336;14.322;2024-01-11T13:03:06;-5.90;99.90
2495;DHT22;1258;48.336;14.322;2024-01-11T13:05:32;-5.90;99.90
2495;DHT22;1258;48.336;14.322;2024-01-11T13:08:01;-6.00;99.90
2495;DHT22;1258;48.336;14.322;2024-01-11T13:10:29;-6.00;99.90
2495;DHT22;1258;48.336;14.322;2024-01-11T13:12:58;-6.10;99.90
2495;DHT22;1258;48.336;14.322;2024-01-11T13:15:26;-6.00;99.90
2495;DHT22;1258;48.336;14.322;2024-01-11T13:17:55;-6.10;99.90
2495;DHT22;1258;48.336;14.322;2024-01-11T13:20:23;-6.20;99.90
2495;DHT22;1258;48.336;14.322;2024-01-11T13:22:57;-6.10;99.90
2495;DHT22;1258;48.336;14.322;2024-01-11T13:25:37;-6.10;99.90
2495;DHT22;1258;48.336;14.322;2024-01-11T13:28:04;-6.10;99.90
2495;DHT22;1258;48.336;14.322;2024-01-11T13:30:32;-6.20;99.90
2495;DHT22;1258;48.336;14.322;2024-01-11T13:33:00;-6.20;99.90
2495;DHT22;1258;48.336;14.322;2024-01-11T13:35:27;-6.20;99.90
2495;DHT22;1258;48.336;14.322;2024-01-11T13:37:54;-6.20;99.90
2495;DHT22;1258;48.336;14.322;2024-01-11T13:40:21;-6.20;99.90
2495;DHT22;1258;48.336;14.322;2024-01-11T13:42:48;-6.10;99.90
2495;DHT22;1258;48.336;14.322;2024-01-11T13:45:14;-6.10;99.90
2495;DHT22;1258;48.336;14.322;2024-01-11T13:47:41;-6.10;99.90
2495;DHT22;1258;48.336;14.322;2024-01-11T13:50:09;-6.10;99.90
2495;DHT22;1258;48.336;14.322;2024-01-11T13:52:36;-6.20;99.90
2495;DHT22;1258;48.336;14.322;2024-01-11T13:55:03;-6.10;99.90
2495;DHT22;1258;48.336;14.322;2024-01-11T13:57:30;-6.20;99.90
2495;DHT22;1258;48.336;14.322;2024-01-11T13:59:59;-6.40;99.90
2495;DHT22;1258;48.336;14.322;2024-01-11T14:02:26;-6.30;99.90
2495;DHT22;1258;48.336;14.322;2024-01-11T14:04:53;-6.30;99.90
2495;DHT22;1258;48.336;14.322;2024-01-11T14:07:21;-6.40;99.90
2495;DHT22;1258;48.336;14.322;2024-01-11T14:09:48;-6.40;99.90
2495;DHT22;1258;48.336;14.322;2024-01-11T14:12:15;-6.50;99.90
2495;DHT22;1258;48.336;14.322;2024-01-11T14:14:42;-6.60;99.90
2495;DHT22;1258;48.336;14.322;2024-01-11T14:17:09;-6.60;99.90
2495;DHT22;1258;48.336;14.322;2024-01-11T14:19:36;-6.70;99.90
2495;DHT22;1258;48.336;14.322;2024-01-11T14:22:03;-6.70;99.90
2495;DHT22;1258;48.336;14.322;2024-01-11T14:24:32;-6.80;99.90
2495;DHT22;1258;48.336;14.322;2024-01-11T14:26:59;-6.80;99.90
2495;DHT22;1258;48.336;14.322;2024-01-11T14:29:27;-6.80;99.90
2495;DHT22;1258;48.336;14.322;2024-01-11T14:31:54;-6.80;99.90
2495;DHT22;1258;48.336;14.322;2024-01-11T14:34:25;-6.90;99.90
2495;DHT22;1258;48.336;14.322;2024-01-11T14:36:52;-6.90;99.90
2495;DHT22;1258;48.336;14.322;2024-01-11T14:39:19;-7.00;99.90
2495;DHT22;1258;48.336;14.322;2024-01-11T14:41:50;-7.00;99.90
2495;DHT22;1258;48.336;14.322;2024-01-11T14:44:16;-7.00;99.90
2495;DHT22;1258;48.336;14.322;2024-01-11T14:46:43;-7.10;99.90
2495;DHT22;1258;48.336;14.322;2024-01-11T14:49:10;-7.10;99.90
2495;DHT22;1258;48.336;14.322;2024-01-11T14:51:37;-7.20;99.90
2495;DHT22;1258;48.336;14.322;2024-01-11T14:54:05;-7.20;99.90
2495;DHT22;1258;48.336;14.322;2024-01-11T14:56:33;-7.20;99.90
2495;DHT22;1258;48.336;14.322;2024-01-11T14:59:02;-7.30;99.90
2495;DHT22;1258;48.336;14.322;2024-01-11T15:01:29;-7.30;99.90
2495;DHT22;1258;48.336;14.322;2024-01-11T15:03:56;-7.30;99.90
2495;DHT22;1258;48.336;14.322;2024-01-11T15:06:23;-7.30;99.90
2495;DHT22;1258;48.336;14.322;2024-01-11T15:08:50;-7.40;99.90
2495;DHT22;1258;48.336;14.322;2024-01-11T15:11:17;-7.50;99.90
2495;DHT22;1258;48.336;14.322;2024-01-11T15:13:44;-7.50;99.90
2495;DHT22;1258;48.336;14.322;2024-01-11T15:16:13;-7.60;99.90
2495;DHT22;1258;48.336;14.322;2024-01-11T15:18:40;-7.60;99.90
2495;DHT22;1258;48.336;14.322;2024-01-11T15:21:06;-7.60;99.90
2495;DHT22;1258;48.336;14.322;2024-01-11T15:23:33;-7.60;99.90
2495;DHT22;1258;48.336;14.322;2024-01-11T15:26:00;-7.60;99.90
2495;DHT22;1258;48.336;14.322;2024-01-11T15:28:28;-7.60;99.90
2495;DHT22;1258;48.336;14.322;2024-01-11T15:30:55;-7.70;99.90
2495;DHT22;1258;48.336;14.322;2024-01-11T15:33:23;-7.80;99.90
2495;DHT22;1258;48.336;14.322;2024-01-11T15:35:50;-7.80;99.90
2495;DHT22;1258;48.336;14.322;2024-01-11T15:38:17;-7.70;99.90
2495;DHT22;1258;48.336;14.322;2024-01-11T15:40:44;-7.70;99.90
2495;DHT22;1258;48.336;14.322;2024-01-11T15:43:11;-7.80;99.90